sensor_id;sensor_type;location;lat;lon;timestamp;P1;durP1;ratioP1;P2;durP2;ratioP2
7330;SDS011;3706;49.198;7.064;2023-12-20T00:01:07;6.87;;;5.07;;
7330;SDS011;3706;49.198;7.064;2023-12-20T00:03:34;8.37;;;5.77;;
7330;SDS011;3706;49.198;7.064;2023-12-20T00:06:01;6.67;;;4.90;;
7330;SDS011;3706;49.198;7.064;2023-12-20T00:08:28;8.90;;;5.57;;
7330;SDS011;3706;49.198;7.064;2023-12-20T00:10:55;7.20;;;5.03;;
7330;SDS011;3706;49.198;7.064;2023-12-20T00:13:22;9.23;;;5.70;;
7330;SDS011;3706;49.198;7.064;2023-12-20T00:15:50;7.50;;;5.87;;
7330;SDS011;3706;49.198;7.064;2023-12-20T00:18:18;6.03;;;4.87;;
7330;SDS011;3706;49.198;7.064;2023-12-20T00:20:44;8.90;;;5.10;;
7330;SDS011;3706;49.198;7.064;2023-12-20T00:23:11;6.63;;;4.37;;
7330;SDS011;3706;49.198;7.064;2023-12-20T00:25:37;7.00;;;5.23;;
7330;SDS011;3706;49.198;7.064;2023-12-20T00:28:04;5.70;;;5.00;;
7330;SDS011;3706;49.198;7.064;2023-12-20T00:30:32;5.17;;;4.50;;
7330;SDS011;3706;49.198;7.064;2023-12-20T00:33:00;9.33;;;6.30;;
7330;SDS011;3706;49.198;7.064;2023-12-20T00:35:27;6.70;;;5.20;;
7330;SDS011;3706;49.198;7.064;2023-12-20T00:37:54;4.73;;;3.97;;
7330;SDS011;3706;49.198;7.064;2023-12-20T00:40:21;6.63;;;4.50;;
7330;SDS011;3706;49.198;7.064;2023-12-20T00:42:48;7.03;;;5.00;;
7330;SDS011;3706;49.198;7.064;2023-12-20T00:45:15;5.80;;;4.40;;
7330;SDS011;3706;49.198;7.064;2023-12-20T00:47:42;7.63;;;5.37;;
7330;SDS011;3706;49.198;7.064;2023-12-20T00:50:10;6.17;;;4.80;;
7330;SDS011;3706;49.198;7.064;2023-12-20T00:52:37;5.63;;;4.40;;
7330;SDS011;3706;49.198;7.064;2023-12-20T00:55:04;6.17;;;4.67;;
7330;SDS011;3706;49.198;7.064;2023-12-20T00:57:32;6.10;;;4.40;;
7330;SDS011;3706;49.198;7.064;2023-12-20T00:59:59;6.40;;;4.80;;
7330;SDS011;3706;49.198;7.064;2023-12-20T01:02:26;5.80;;;4.17;;
7330;SDS011;3706;49.198;7.064;2023-12-20T01:04:53;6.57;;;4.67;;
7330;SDS011;3706;49.198;7.064;2023-12-20T01:07:21;5.13;;;4.37;;
7330;SDS011;3706;49.198;7.064;2023-12-20T01:09:48;5.50;;;3.80;;
7330;SDS011;3706;49.198;7.064;2023-12-20T01:12:15;5.27;;;4.13;;
7330;SDS011;3706;49.198;7.064;2023-12-20T01:14:42;4.27;;;3.17;;
7330;SDS011;3706;49.198;7.064;2023-12-20T01:17:09;6.27;;;4.50;;
7330;SDS011;3706;49.198;7.064;2023-12-20T01:19:36;5.80;;;4.03;;
7330;SDS011;3706;49.198;7.064;2023-12-20T01:22:03;5.17;;;3.67;;
7330;SDS011;3706;49.198;7.064;2023-12-20T01:24:32;5.93;;;4.33;;
7330;SDS011;3706;49.198;7.064;2023-12-20T01:26:58;6.50;;;4.83;;
7330;SDS011;3706;49.198;7.064;2023-12-20T01:29:26;5.73;;;4.17;;
7330;SDS011;3706;49.198;7.064;2023-12-20T01:31:52;6.07;;;4.47;;
7330;SDS011;3706;49.198;7.064;2023-12-20T01:34:19;5.87;;;4.13;;
7330;SDS011;3706;49.198;7.064;2023-12-20T01:36:46;4.70;;;3.80;;
7330;SDS011;3706;49.198;7.064;2023-12-20T01:39:13;6.70;;;3.93;;
7330;SDS011;3706;49.198;7.064;2023-12-20T01:41:42;6.23;;;4.13;;
7330;SDS011;3706;49.198;7.064;2023-12-20T01:44:08;5.97;;;4.43;;
7330;SDS011;3706;49.198;7.064;2023-12-20T01:46:35;6.07;;;4.47;;
7330;SDS011;3706;49.198;7.064;2023-12-20T01:49:02;7.63;;;5.10;;
7330;SDS011;3706;49.198;7.064;2023-12-20T01:51:29;6.27;;;4.57;;
7330;SDS011;3706;49.198;7.064;2023-12-20T01:53:58;6.37;;;4.97;;
7330;SDS011;3706;49.198;7.064;2023-12-20T01:56:26;7.50;;;4.80;;
7330;SDS011;3706;49.198;7.064;2023-12-20T01:58:56;5.83;;;4.57;;
7330;SDS011;3706;49.198;7.064;2023-12-20T02:01:24;5.87;;;4.40;;
7330;SDS011;3706;49.198;7.064;2023-12-20T02:03:53;6.93;;;5.13;;
7330;SDS011;3706;49.198;7.064;2023-12-20T02:06:21;4.73;;;4.13;;
7330;SDS011;3706;49.198;7.064;2023-12-20T02:08:49;5.03;;;4.10;;
7330;SDS011;3706;49.198;7.064;2023-12-20T02:11:16;4.60;;;4.00;;
7330;SDS011;3706;49.198;7.064;2023-12-20T02:13:43;5.60;;;4.10;;
7330;SDS011;3706;49.198;7.064;2023-12-20T02:16:12;6.50;;;4.20;;
7330;SDS011;3706;49.198;7.064;2023-12-20T02:18:39;5.33;;;4.47;;
7330;SDS011;3706;49.198;7.064;2023-12-20T02:21:06;5.47;;;4.67;;
7330;SDS011;3706;49.198;7.064;2023-12-20T02:23:34;5.13;;;4.20;;
7330;SDS011;3706;49.198;7.064;2023-12-20T02:26:02;4.50;;;3.57;;
7330;SDS011;3706;49.198;7.064;2023-12-20T02:28:29;5.93;;;4.30;;
7330;SDS011;3706;49.198;7.064;2023-12-20T02:30:57;5.93;;;4.37;;
7330;SDS011;3706;49.198;7.064;2023-12-20T02:33:24;5.77;;;4.40;;
7330;SDS011;3706;49.198;7.064;2023-12-20T02:35:51;5.50;;;4.67;;
7330;SDS011;3706;49.198;7.064;2023-12-20T02:38:18;5.20;;;4.20;;
7330;SDS011;3706;49.198;7.064;2023-12-20T02:40:47;5.23;;;4.30;;
7330;SDS011;3706;49.198;7.064;2023-12-20T02:43:14;6.53;;;5.17;;
7330;SDS011;3706;49.198;7.064;2023-12-20T02:45:40;6.70;;;5.10;;
7330;SDS011;3706;49.198;7.064;2023-12-20T02:48:07;4.47;;;4.03;;
7330;SDS011;3706;49.198;7.064;2023-12-20T02:50:34;6.33;;;4.83;;
7330;SDS011;3706;49.198;7.064;2023-12-20T02:53:01;6.37;;;5.40;;
7330;SDS011;3706;49.198;7.064;2023-12-20T02:55:28;5.30;;;4.57;;
7330;SDS011;3706;49.198;7.064;2023-12-20T02:57:57;7.57;;;5.57;;
7330;SDS011;3706;49.198;7.064;2023-12-20T03:00:24;7.50;;;5.90;;
7330;SDS011;3706;49.198;7.064;2023-12-20T03:02:51;7.20;;;5.60;;
7330;SDS011;3706;49.198;7.064;2023-12-20T03:05:17;8.37;;;5.33;;
7330;SDS011;3706;49.198;7.064;2023-12-20T03:07:45;7.70;;;5.30;;
7330;SDS011;3706;49.198;7.064;2023-12-20T03:10:12;4.40;;;3.97;;
7330;SDS011;3706;49.198;7.064;2023-12-20T03:12:39;6.27;;;4.50;;
7330;SDS011;3706;49.198;7.064;2023-12-20T03:15:08;5.40;;;4.63;;
7330;SDS011;3706;49.198;7.064;2023-12-20T03:17:35;6.93;;;5.43;;
7330;SDS011;3706;49.198;7.064;2023-12-20T03:20:03;7.53;;;5.87;;
7330;SDS011;3706;49.198;7.064;2023-12-20T03:22:30;6.37;;;4.77;;
7330;SDS011;3706;49.198;7.064;2023-12-20T03:24:57;5.27;;;4.47;;
7330;SDS011;3706;49.198;7.064;2023-12-20T03:27:24;7.47;;;5.93;;
7330;SDS011;3706;49.198;7.064;2023-12-20T03:29:51;9.27;;;6.67;;
7330;SDS011;3706;49.198;7.064;2023-12-20T03:32:19;7.63;;;6.10;;
7330;SDS011;3706;49.198;7.064;2023-12-20T03:34:46;8.17;;;6.10;;
7330;SDS011;3706;49.198;7.064;2023-12-20T03:37:13;8.17;;;6.57;;
7330;SDS011;3706;49.198;7.064;2023-12-20T03:39:40;7.57;;;5.80;;
7330;SDS011;3706;49.198;7.064;2023-12-20T03:42:07;7.17;;;6.17;;
7330;SDS011;3706;49.198;7.064;2023-12-20T03:44:34;6.47;;;4.83;;
7330;SDS011;3706;49.198;7.064;2023-12-20T03:47:01;7.90;;;6.27;;
7330;SDS011;3706;49.198;7.064;2023-12-20T03:49:29;7.10;;;5.83;;
7330;SDS011;3706;49.198;7.064;2023-12-20T03:51:56;8.33;;;6.20;;
7330;SDS011;3706;49.198;7.064;2023-12-20T03:54:23;5.83;;;5.07;;
7330;SDS011;3706;49.198;7.064;2023-12-20T03:56:50;6.73;;;5.13;;
7330;SDS011;3706;49.198;7.064;2023-12-20T03:59:17;6.27;;;5.00;;
7330;SDS011;3706;49.198;7.064;2023-12-20T04:01:44;7.50;;;5.50;;
7330;SDS011;3706;49.198;7.064;2023-12-20T04:04:12;6.90;;;5.57;;
7330;SDS011;3706;49.198;7.064;2023-12-20T04:06:41;5.67;;;5.07;;
7330;SDS011;3706;49.198;7.064;2023-12-20T04:09:08;7.80;;;6.40;;
7330;SDS011;3706;49.198;7.064;2023-12-20T04:11:35;6.50;;;4.80;;
7330;SDS011;3706;49.198;7.064;2023-12-20T04:14:01;4.77;;;4.10;;
7330;SDS011;3706;49.198;7.064;2023-12-20T04:16:30;7.07;;;5.37;;
7330;SDS011;3706;49.198;7.064;2023-12-20T04:18:56;6.73;;;5.77;;
7330;SDS011;3706;49.198;7.064;2023-12-20T04:21:23;7.30;;;5.60;;
7330;SDS011;3706;49.198;7.064;2023-12-20T04:23:52;5.30;;;4.37;;
7330;SDS011;3706;49.198;7.064;2023-12-20T04:26:19;5.13;;;4.13;;
7330;SDS011;3706;49.198;7.064;2023-12-20T04:28:46;5.67;;;3.73;;
7330;SDS011;3706;49.198;7.064;2023-12-20T04:31:13;6.33;;;4.80;;
7330;SDS011;3706;49.198;7.064;2023-12-20T04:33:40;5.23;;;4.27;;
7330;SDS011;3706;49.198;7.064;2023-12-20T04:36:07;4.60;;;3.73;;
7330;SDS011;3706;49.198;7.064;2023-12-20T04:38:34;3.83;;;3.30;;
7330;SDS011;3706;49.198;7.064;2023-12-20T04:41:03;4.70;;;3.60;;
7330;SDS011;3706;49.198;7.064;2023-12-20T04:43:30;4.67;;;3.60;;
7330;SDS011;3706;49.198;7.064;2023-12-20T04:45:57;4.80;;;4.23;;
7330;SDS011;3706;49.198;7.064;2023-12-20T04:48:23;5.53;;;3.87;;
7330;SDS011;3706;49.198;7.064;2023-12-20T04:50:50;4.87;;;3.90;;
7330;SDS011;3706;49.198;7.064;2023-12-20T04:53:17;4.47;;;3.53;;
7330;SDS011;3706;49.198;7.064;2023-12-20T04:55:44;5.37;;;3.40;;
7330;SDS011;3706;49.198;7.064;2023-12-20T04:58:13;6.20;;;3.43;;
7330;SDS011;3706;49.198;7.064;2023-12-20T05:00:40;4.90;;;3.33;;
7330;SDS011;3706;49.198;7.064;2023-12-20T05:03:07;4.83;;;3.07;;
7330;SDS011;3706;49.198;7.064;2023-12-20T05:05:34;4.30;;;3.40;;
7330;SDS011;3706;49.198;7.064;2023-12-20T05:08:01;4.77;;;2.90;;
7330;SDS011;3706;49.198;7.064;2023-12-20T05:10:29;4.40;;;2.70;;
7330;SDS011;3706;49.198;7.064;2023-12-20T05:12:56;6.60;;;2.97;;
7330;SDS011;3706;49.198;7.064;2023-12-20T05:15:24;8.50;;;3.73;;
7330;SDS011;3706;49.198;7.064;2023-12-20T05:17:51;5.40;;;3.47;;
7330;SDS011;3706;49.198;7.064;2023-12-20T05:20:18;4.23;;;2.90;;
7330;SDS011;3706;49.198;7.064;2023-12-20T05:22:45;4.80;;;2.50;;
7330;SDS011;3706;49.198;7.064;2023-12-20T05:25:12;10.20;;;5.67;;
7330;SDS011;3706;49.198;7.064;2023-12-20T05:27:39;3.60;;;2.40;;
7330;SDS011;3706;49.198;7.064;2023-12-20T05:30:06;4.13;;;2.30;;
7330;SDS011;3706;49.198;7.064;2023-12-20T05:32:35;4.87;;;2.30;;
7330;SDS011;3706;49.198;7.064;2023-12-20T05:35:02;3.43;;;2.60;;
7330;SDS011;3706;49.198;7.064;2023-12-20T05:37:30;6.70;;;2.10;;
7330;SDS011;3706;49.198;7.064;2023-12-20T05:39:57;3.43;;;2.40;;
7330;SDS011;3706;49.198;7.064;2023-12-20T05:42:24;4.50;;;2.30;;
7330;SDS011;3706;49.198;7.064;2023-12-20T05:44:51;11.30;;;2.83;;
7330;SDS011;3706;49.198;7.064;2023-12-20T05:47:18;3.50;;;2.10;;
7330;SDS011;3706;49.198;7.064;2023-12-20T05:49:46;6.73;;;2.10;;
7330;SDS011;3706;49.198;7.064;2023-12-20T05:52:13;7.13;;;2.10;;
7330;SDS011;3706;49.198;7.064;2023-12-20T05:54:40;9.00;;;2.40;;
7330;SDS011;3706;49.198;7.064;2023-12-20T05:57:07;6.23;;;2.47;;
7330;SDS011;3706;49.198;7.064;2023-12-20T05:59:34;6.00;;;2.37;;
7330;SDS011;3706;49.198;7.064;2023-12-20T06:02:02;6.37;;;2.30;;
7330;SDS011;3706;49.198;7.064;2023-12-20T06:04:30;9.20;;;2.40;;
7330;SDS011;3706;49.198;7.064;2023-12-20T06:06:58;5.40;;;2.20;;
7330;SDS011;3706;49.198;7.064;2023-12-20T06:09:26;5.80;;;2.83;;
7330;SDS011;3706;49.198;7.064;2023-12-20T06:11:53;6.57;;;2.00;;
7330;SDS011;3706;49.198;7.064;2023-12-20T06:14:20;10.00;;;2.50;;
7330;SDS011;3706;49.198;7.064;2023-12-20T06:16:48;4.13;;;2.57;;
7330;SDS011;3706;49.198;7.064;2023-12-20T06:19:15;13.33;;;2.87;;
7330;SDS011;3706;49.198;7.064;2023-12-20T06:21:42;5.90;;;2.60;;
7330;SDS011;3706;49.198;7.064;2023-12-20T06:24:10;4.73;;;2.30;;
7330;SDS011;3706;49.198;7.064;2023-12-20T06:26:37;2.97;;;1.83;;
7330;SDS011;3706;49.198;7.064;2023-12-20T06:29:03;3.77;;;2.20;;
7330;SDS011;3706;49.198;7.064;2023-12-20T06:31:30;5.93;;;2.77;;
7330;SDS011;3706;49.198;7.064;2023-12-20T06:33:58;2.60;;;1.63;;
7330;SDS011;3706;49.198;7.064;2023-12-20T06:36:25;6.67;;;2.60;;
7330;SDS011;3706;49.198;7.064;2023-12-20T06:38:52;4.33;;;2.00;;
7330;SDS011;3706;49.198;7.064;2023-12-20T06:41:21;4.50;;;1.80;;
7330;SDS011;3706;49.198;7.064;2023-12-20T06:43:49;9.60;;;3.50;;
7330;SDS011;3706;49.198;7.064;2023-12-20T06:46:16;6.90;;;2.67;;
7330;SDS011;3706;49.198;7.064;2023-12-20T06:48:43;8.20;;;3.70;;
7330;SDS011;3706;49.198;7.064;2023-12-20T06:51:12;10.53;;;3.90;;
7330;SDS011;3706;49.198;7.064;2023-12-20T06:53:40;8.70;;;4.53;;
7330;SDS011;3706;49.198;7.064;2023-12-20T06:56:07;11.47;;;4.40;;
7330;SDS011;3706;49.198;7.064;2023-12-20T06:58:38;10.50;;;5.23;;
7330;SDS011;3706;49.198;7.064;2023-12-20T07:01:04;11.77;;;5.23;;
7330;SDS011;3706;49.198;7.064;2023-12-20T07:03:31;9.17;;;4.87;;
7330;SDS011;3706;49.198;7.064;2023-12-20T07:05:58;7.57;;;4.80;;
7330;SDS011;3706;49.198;7.064;2023-12-20T07:08:25;11.87;;;4.90;;
7330;SDS011;3706;49.198;7.064;2023-12-20T07:10:52;18.77;;;7.60;;
7330;SDS011;3706;49.198;7.064;2023-12-20T07:13:19;11.67;;;6.63;;
7330;SDS011;3706;49.198;7.064;2023-12-20T07:15:48;6.33;;;4.40;;
7330;SDS011;3706;49.198;7.064;2023-12-20T07:18:15;8.40;;;3.77;;
7330;SDS011;3706;49.198;7.064;2023-12-20T07:20:42;13.27;;;2.70;;
7330;SDS011;3706;49.198;7.064;2023-12-20T07:23:09;8.90;;;3.00;;
7330;SDS011;3706;49.198;7.064;2023-12-20T07:25:36;5.97;;;2.90;;
7330;SDS011;3706;49.198;7.064;2023-12-20T07:28:03;7.77;;;4.47;;
7330;SDS011;3706;49.198;7.064;2023-12-20T07:30:31;7.93;;;3.67;;
7330;SDS011;3706;49.198;7.064;2023-12-20T07:32:59;5.60;;;3.37;;
7330;SDS011;3706;49.198;7.064;2023-12-20T07:35:27;7.97;;;3.77;;
7330;SDS011;3706;49.198;7.064;2023-12-20T07:37:54;6.80;;;3.47;;
7330;SDS011;3706;49.198;7.064;2023-12-20T07:40:21;7.40;;;3.60;;
7330;SDS011;3706;49.198;7.064;2023-12-20T07:42:49;11.37;;;3.73;;
7330;SDS011;3706;49.198;7.064;2023-12-20T07:45:16;6.80;;;3.03;;
7330;SDS011;3706;49.198;7.064;2023-12-20T07:47:43;5.67;;;3.53;;
7330;SDS011;3706;49.198;7.064;2023-12-20T07:50:11;16.13;;;6.20;;
7330;SDS011;3706;49.198;7.064;2023-12-20T07:52:38;8.20;;;3.40;;
7330;SDS011;3706;49.198;7.064;2023-12-20T07:55:05;9.97;;;4.23;;
7330;SDS011;3706;49.198;7.064;2023-12-20T07:57:33;11.37;;;4.30;;
7330;SDS011;3706;49.198;7.064;2023-12-20T08:00:00;6.23;;;3.67;;
7330;SDS011;3706;49.198;7.064;2023-12-20T08:02:28;8.60;;;3.53;;
7330;SDS011;3706;49.198;7.064;2023-12-20T08:04:55;6.73;;;2.93;;
7330;SDS011;3706;49.198;7.064;2023-12-20T08:07:24;10.17;;;3.50;;
7330;SDS011;3706;49.198;7.064;2023-12-20T08:09:51;8.10;;;3.27;;
7330;SDS011;3706;49.198;7.064;2023-12-20T08:12:20;6.40;;;4.03;;
7330;SDS011;3706;49.198;7.064;2023-12-20T08:14:47;8.37;;;3.23;;
7330;SDS011;3706;49.198;7.064;2023-12-20T08:17:13;10.43;;;3.50;;
7330;SDS011;3706;49.198;7.064;2023-12-20T08:19:41;10.43;;;2.90;;
7330;SDS011;3706;49.198;7.064;2023-12-20T08:22:08;7.73;;;4.17;;
7330;SDS011;3706;49.198;7.064;2023-12-20T08:24:36;9.13;;;3.53;;
7330;SDS011;3706;49.198;7.064;2023-12-20T08:27:04;7.73;;;3.43;;
7330;SDS011;3706;49.198;7.064;2023-12-20T08:29:31;6.40;;;3.37;;
7330;SDS011;3706;49.198;7.064;2023-12-20T08:31:58;11.90;;;4.23;;
7330;SDS011;3706;49.198;7.064;2023-12-20T08:34:26;10.37;;;3.73;;
7330;SDS011;3706;49.198;7.064;2023-12-20T08:36:53;8.40;;;3.17;;
7330;SDS011;3706;49.198;7.064;2023-12-20T08:39:20;7.37;;;3.37;;
7330;SDS011;3706;49.198;7.064;2023-12-20T08:41:48;9.73;;;3.17;;
7330;SDS011;3706;49.198;7.064;2023-12-20T08:44:15;6.10;;;3.63;;
7330;SDS011;3706;49.198;7.064;2023-12-20T08:46:42;8.33;;;2.87;;
7330;SDS011;3706;49.198;7.064;2023-12-20T08:49:09;12.97;;;4.80;;
7330;SDS011;3706;49.198;7.064;2023-12-20T08:51:36;7.37;;;3.30;;
7330;SDS011;3706;49.198;7.064;2023-12-20T08:54:06;11.03;;;3.93;;
7330;SDS011;3706;49.198;7.064;2023-12-20T08:56:33;10.37;;;3.67;;
7330;SDS011;3706;49.198;7.064;2023-12-20T08:59:02;8.63;;;3.70;;
7330;SDS011;3706;49.198;7.064;2023-12-20T09:01:29;9.33;;;3.80;;
7330;SDS011;3706;49.198;7.064;2023-12-20T09:03:55;7.37;;;3.07;;
7330;SDS011;3706;49.198;7.064;2023-12-20T09:06:22;11.43;;;3.70;;
7330;SDS011;3706;49.198;7.064;2023-12-20T09:08:50;11.37;;;4.63;;
7330;SDS011;3706;49.198;7.064;2023-12-20T09:11:16;11.87;;;5.43;;
7330;SDS011;3706;49.198;7.064;2023-12-20T09:13:43;10.30;;;4.80;;
7330;SDS011;3706;49.198;7.064;2023-12-20T09:16:12;9.33;;;3.63;;
7330;SDS011;3706;49.198;7.064;2023-12-20T09:18:40;9.87;;;4.83;;
7330;SDS011;3706;49.198;7.064;2023-12-20T09:21:07;12.70;;;5.30;;
7330;SDS011;3706;49.198;7.064;2023-12-20T09:23:34;12.80;;;3.30;;
7330;SDS011;3706;49.198;7.064;2023-12-20T09:26:03;9.13;;;4.00;;
7330;SDS011;3706;49.198;7.064;2023-12-20T09:28:29;11.20;;;3.77;;
7330;SDS011;3706;49.198;7.064;2023-12-20T09:31:01;9.33;;;3.17;;
7330;SDS011;3706;49.198;7.064;2023-12-20T09:33:31;9.23;;;3.73;;
7330;SDS011;3706;49.198;7.064;2023-12-20T09:35:58;7.80;;;3.63;;
7330;SDS011;3706;49.198;7.064;2023-12-20T09:38:25;6.17;;;3.00;;
7330;SDS011;3706;49.198;7.064;2023-12-20T09:40:52;8.17;;;3.50;;
7330;SDS011;3706;49.198;7.064;2023-12-20T09:43:21;8.83;;;3.40;;
7330;SDS011;3706;49.198;7.064;2023-12-20T09:45:52;8.83;;;3.70;;
7330;SDS011;3706;49.198;7.064;2023-12-20T09:48:20;9.37;;;3.60;;
7330;SDS011;3706;49.198;7.064;2023-12-20T09:50:48;9.50;;;3.17;;
7330;SDS011;3706;49.198;7.064;2023-12-20T09:53:15;11.90;;;4.07;;
7330;SDS011;3706;49.198;7.064;2023-12-20T09:55:45;7.90;;;3.50;;
7330;SDS011;3706;49.198;7.064;2023-12-20T09:58:12;11.23;;;3.57;;
7330;SDS011;3706;49.198;7.064;2023-12-20T10:00:39;7.87;;;3.17;;
7330;SDS011;3706;49.198;7.064;2023-12-20T10:03:06;9.43;;;3.40;;
7330;SDS011;3706;49.198;7.064;2023-12-20T10:05:36;8.60;;;3.23;;
7330;SDS011;3706;49.198;7.064;2023-12-20T10:08:05;3.57;;;2.00;;
7330;SDS011;3706;49.198;7.064;2023-12-20T10:10:32;7.73;;;2.87;;
7330;SDS011;3706;49.198;7.064;2023-12-20T10:13:03;9.00;;;3.57;;
7330;SDS011;3706;49.198;7.064;2023-12-20T10:15:30;11.20;;;3.30;;
7330;SDS011;3706;49.198;7.064;2023-12-20T10:17:58;7.53;;;3.50;;
7330;SDS011;3706;49.198;7.064;2023-12-20T10:20:25;12.37;;;3.53;;
7330;SDS011;3706;49.198;7.064;2023-12-20T10:22:53;10.13;;;3.33;;
7330;SDS011;3706;49.198;7.064;2023-12-20T10:25:22;8.93;;;3.33;;
7330;SDS011;3706;49.198;7.064;2023-12-20T10:27:50;8.43;;;3.27;;
7330;SDS011;3706;49.198;7.064;2023-12-20T10:30:34;7.67;;;3.20;;
7330;SDS011;3706;49.198;7.064;2023-12-20T10:33:01;13.27;;;3.10;;
7330;SDS011;3706;49.198;7.064;2023-12-20T10:35:28;8.43;;;2.97;;
7330;SDS011;3706;49.198;7.064;2023-12-20T10:37:55;6.83;;;3.50;;
7330;SDS011;3706;49.198;7.064;2023-12-20T10:40:24;8.27;;;2.80;;
7330;SDS011;3706;49.198;7.064;2023-12-20T10:42:54;11.63;;;3.37;;
7330;SDS011;3706;49.198;7.064;2023-12-20T10:45:23;4.20;;;2.37;;
7330;SDS011;3706;49.198;7.064;2023-12-20T10:47:50;5.17;;;2.47;;
7330;SDS011;3706;49.198;7.064;2023-12-20T10:50:18;4.50;;;2.40;;
7330;SDS011;3706;49.198;7.064;2023-12-20T10:52:46;9.27;;;3.40;;
7330;SDS011;3706;49.198;7.064;2023-12-20T10:55:13;7.23;;;2.93;;
7330;SDS011;3706;49.198;7.064;2023-12-20T10:57:42;12.27;;;2.80;;
7330;SDS011;3706;49.198;7.064;2023-12-20T11:00:16;4.87;;;2.50;;
7330;SDS011;3706;49.198;7.064;2023-12-20T11:02:44;8.93;;;3.10;;
7330;SDS011;3706;49.198;7.064;2023-12-20T11:05:14;4.30;;;2.10;;
7330;SDS011;3706;49.198;7.064;2023-12-20T11:07:52;6.80;;;2.43;;
7330;SDS011;3706;49.198;7.064;2023-12-20T11:10:25;17.87;;;5.27;;
7330;SDS011;3706;49.198;7.064;2023-12-20T11:12:59;9.57;;;3.03;;
7330;SDS011;3706;49.198;7.064;2023-12-20T11:15:34;7.57;;;2.60;;
7330;SDS011;3706;49.198;7.064;2023-12-20T11:18:03;7.87;;;2.60;;
7330;SDS011;3706;49.198;7.064;2023-12-20T11:20:35;4.53;;;2.27;;
7330;SDS011;3706;49.198;7.064;2023-12-20T11:23:03;8.73;;;2.43;;
7330;SDS011;3706;49.198;7.064;2023-12-20T11:25:34;6.57;;;2.20;;
7330;SDS011;3706;49.198;7.064;2023-12-20T11:28:15;5.53;;;2.50;;
7330;SDS011;3706;49.198;7.064;2023-12-20T11:30:46;6.93;;;2.33;;
7330;SDS011;3706;49.198;7.064;2023-12-20T11:33:14;6.57;;;3.07;;
7330;SDS011;3706;49.198;7.064;2023-12-20T11:35:42;8.77;;;2.80;;
7330;SDS011;3706;49.198;7.064;2023-12-20T11:38:09;10.83;;;2.87;;
7330;SDS011;3706;49.198;7.064;2023-12-20T11:40:36;7.83;;;3.37;;
7330;SDS011;3706;49.198;7.064;2023-12-20T11:43:04;7.20;;;2.20;;
7330;SDS011;3706;49.198;7.064;2023-12-20T11:45:33;7.00;;;2.20;;
7330;SDS011;3706;49.198;7.064;2023-12-20T11:48:01;6.57;;;2.43;;
7330;SDS011;3706;49.198;7.064;2023-12-20T11:50:28;10.93;;;2.70;;
7330;SDS011;3706;49.198;7.064;2023-12-20T11:52:56;5.43;;;2.60;;
7330;SDS011;3706;49.198;7.064;2023-12-20T11:55:23;7.63;;;2.10;;
7330;SDS011;3706;49.198;7.064;2023-12-20T11:57:50;11.00;;;2.57;;
7330;SDS011;3706;49.198;7.064;2023-12-20T12:00:18;5.80;;;2.53;;
7330;SDS011;3706;49.198;7.064;2023-12-20T12:02:56;7.60;;;2.63;;
7330;SDS011;3706;49.198;7.064;2023-12-20T12:05:23;11.93;;;2.73;;
7330;SDS011;3706;49.198;7.064;2023-12-20T12:07:50;10.33;;;2.23;;
7330;SDS011;3706;49.198;7.064;2023-12-20T12:10:17;7.33;;;2.83;;
7330;SDS011;3706;49.198;7.064;2023-12-20T12:12:44;8.07;;;2.50;;
7330;SDS011;3706;49.198;7.064;2023-12-20T12:15:11;7.70;;;2.60;;
7330;SDS011;3706;49.198;7.064;2023-12-20T12:17:39;8.67;;;3.03;;
7330;SDS011;3706;49.198;7.064;2023-12-20T12:20:07;6.77;;;2.70;;
7330;SDS011;3706;49.198;7.064;2023-12-20T12:22:35;6.60;;;2.50;;
7330;SDS011;3706;49.198;7.064;2023-12-20T12:25:09;7.93;;;2.30;;
7330;SDS011;3706;49.198;7.064;2023-12-20T12:27:37;7.80;;;2.07;;
7330;SDS011;3706;49.198;7.064;2023-12-20T12:30:06;5.20;;;2.60;;
7330;SDS011;3706;49.198;7.064;2023-12-20T12:32:34;9.03;;;2.97;;
7330;SDS011;3706;49.198;7.064;2023-12-20T12:35:02;9.93;;;2.97;;
7330;SDS011;3706;49.198;7.064;2023-12-20T12:37:33;6.90;;;3.27;;
7330;SDS011;3706;49.198;7.064;2023-12-20T12:40:01;11.13;;;3.33;;
7330;SDS011;3706;49.198;7.064;2023-12-20T12:42:31;9.90;;;2.90;;
7330;SDS011;3706;49.198;7.064;2023-12-20T12:44:58;8.83;;;2.63;;
7330;SDS011;3706;49.198;7.064;2023-12-20T12:47:25;11.30;;;3.87;;
7330;SDS011;3706;49.198;7.064;2023-12-20T12:49:52;4.43;;;2.10;;
7330;SDS011;3706;49.198;7.064;2023-12-20T12:52:19;8.40;;;2.97;;
7330;SDS011;3706;49.198;7.064;2023-12-20T12:54:47;10.80;;;2.20;;
7330;SDS011;3706;49.198;7.064;2023-12-20T12:57:15;6.93;;;2.10;;
7330;SDS011;3706;49.198;7.064;2023-12-20T12:59:42;9.57;;;2.20;;
7330;SDS011;3706;49.198;7.064;2023-12-20T13:02:11;8.60;;;2.07;;
7330;SDS011;3706;49.198;7.064;2023-12-20T13:04:38;10.10;;;2.40;;
7330;SDS011;3706;49.198;7.064;2023-12-20T13:07:06;7.73;;;2.27;;
7330;SDS011;3706;49.198;7.064;2023-12-20T13:09:35;7.47;;;2.80;;
7330;SDS011;3706;49.198;7.064;2023-12-20T13:12:04;13.63;;;2.10;;
7330;SDS011;3706;49.198;7.064;2023-12-20T13:14:33;4.63;;;1.80;;
7330;SDS011;3706;49.198;7.064;2023-12-20T13:17:02;4.70;;;2.20;;
7330;SDS011;3706;49.198;7.064;2023-12-20T13:19:29;7.07;;;2.17;;
7330;SDS011;3706;49.198;7.064;2023-12-20T13:21:56;7.43;;;2.50;;
7330;SDS011;3706;49.198;7.064;2023-12-20T13:24:24;9.27;;;2.40;;
7330;SDS011;3706;49.198;7.064;2023-12-20T13:26:51;12.47;;;3.17;;
7330;SDS011;3706;49.198;7.064;2023-12-20T13:29:19;8.87;;;3.30;;
7330;SDS011;3706;49.198;7.064;2023-12-20T13:31:46;8.10;;;2.40;;
7330;SDS011;3706;49.198;7.064;2023-12-20T13:34:14;7.83;;;2.53;;
7330;SDS011;3706;49.198;7.064;2023-12-20T13:36:42;10.80;;;3.17;;
7330;SDS011;3706;49.198;7.064;2023-12-20T13:39:10;10.63;;;3.07;;
7330;SDS011;3706;49.198;7.064;2023-12-20T13:41:38;6.80;;;2.80;;
7330;SDS011;3706;49.198;7.064;2023-12-20T13:44:05;10.50;;;3.50;;
7330;SDS011;3706;49.198;7.064;2023-12-20T13:46:33;7.17;;;2.33;;
7330;SDS011;3706;49.198;7.064;2023-12-20T13:49:00;10.77;;;2.77;;
7330;SDS011;3706;49.198;7.064;2023-12-20T13:51:28;5.63;;;2.40;;
7330;SDS011;3706;49.198;7.064;2023-12-20T13:53:55;10.27;;;3.10;;
7330;SDS011;3706;49.198;7.064;2023-12-20T13:56:22;11.37;;;3.20;;
7330;SDS011;3706;49.198;7.064;2023-12-20T13:58:49;10.53;;;2.80;;
7330;SDS011;3706;49.198;7.064;2023-12-20T14:01:16;6.00;;;2.30;;
7330;SDS011;3706;49.198;7.064;2023-12-20T14:03:45;12.40;;;2.60;;
7330;SDS011;3706;49.198;7.064;2023-12-20T14:06:12;8.80;;;2.30;;
7330;SDS011;3706;49.198;7.064;2023-12-20T14:08:40;11.63;;;2.87;;
7330;SDS011;3706;49.198;7.064;2023-12-20T14:11:07;7.90;;;2.60;;
7330;SDS011;3706;49.198;7.064;2023-12-20T14:13:34;4.50;;;2.10;;
7330;SDS011;3706;49.198;7.064;2023-12-20T14:16:01;7.63;;;2.43;;
7330;SDS011;3706;49.198;7.064;2023-12-20T14:18:29;11.27;;;2.50;;
7330;SDS011;3706;49.198;7.064;2023-12-20T14:20:58;12.50;;;2.73;;
7330;SDS011;3706;49.198;7.064;2023-12-20T14:23:25;7.20;;;2.43;;
7330;SDS011;3706;49.198;7.064;2023-12-20T14:25:52;11.20;;;2.63;;
7330;SDS011;3706;49.198;7.064;2023-12-20T14:28:20;8.40;;;2.93;;
7330;SDS011;3706;49.198;7.064;2023-12-20T14:30:47;8.07;;;2.73;;
7330;SDS011;3706;49.198;7.064;2023-12-20T14:33:15;6.77;;;2.40;;
7330;SDS011;3706;49.198;7.064;2023-12-20T14:35:42;7.60;;;2.53;;
7330;SDS011;3706;49.198;7.064;2023-12-20T14:38:10;10.17;;;3.53;;
7330;SDS011;3706;49.198;7.064;2023-12-20T14:40:40;8.17;;;2.40;;
7330;SDS011;3706;49.198;7.064;2023-12-20T14:43:07;12.83;;;2.73;;
7330;SDS011;3706;49.198;7.064;2023-12-20T14:45:34;7.80;;;2.47;;
7330;SDS011;3706;49.198;7.064;2023-12-20T14:48:00;11.67;;;2.83;;
7330;SDS011;3706;49.198;7.064;2023-12-20T14:50:28;9.53;;;3.37;;
7330;SDS011;3706;49.198;7.064;2023-12-20T14:52:55;10.20;;;2.87;;
7330;SDS011;3706;49.198;7.064;2023-12-20T14:55:23;11.80;;;2.63;;
7330;SDS011;3706;49.198;7.064;2023-12-20T14:57:52;10.20;;;2.63;;
7330;SDS011;3706;49.198;7.064;2023-12-20T15:00:19;9.43;;;2.73;;
7330;SDS011;3706;49.198;7.064;2023-12-20T15:02:46;10.03;;;3.10;;
7330;SDS011;3706;49.198;7.064;2023-12-20T15:05:13;7.37;;;2.93;;
7330;SDS011;3706;49.198;7.064;2023-12-20T15:07:40;11.50;;;3.17;;
7330;SDS011;3706;49.198;7.064;2023-12-20T15:10:07;9.03;;;2.70;;
7330;SDS011;3706;49.198;7.064;2023-12-20T15:12:36;10.07;;;2.80;;
7330;SDS011;3706;49.198;7.064;2023-12-20T15:15:03;9.60;;;2.70;;